Terminal Aerodrome Forecast
Issued by NWS Charleston, WV

Current Version | Previous Version | Text Only | Print | Product List | Glossary Off
Versions: 1 2 3 4 5 6 7 8 9 10 11 12 13 14 15 16 17 18 19 20 21 22 23 24 25 26

000
FTUS41 KRLX 191100
TAFCRW
TAF
KCRW 191120Z 1912/2012 00000KT 3SM BR OVC005
      TEMPO 1913/1916 6SM BR HZ BKN008
     FM191600 00000KT 6SM HZ BKN014
     FM191700 00000KT P6SM BKN025
     FM191900 VRB03KT P6SM VCTS BKN035CB
     FM200500 00000KT 5SM BR VCTS BKN040CB
     FM200900 00000KT 4SM SHRA BR VCTS BKN025CB
     FM201100 00000KT 1 1/2SM BR VCTS SCT003 BKN040CB=

USA.gov is the U.S. government's official web portal to all federal, state and local government web resources and services.